sensor_id;sensor_type;location;lat;lon;timestamp;P1;durP1;ratioP1;P2;durP2;ratioP2
32533;SDS011;18973;48.580;8.912;2024-01-27T00:01:39;6.50;;;3.97;;
32533;SDS011;18973;48.580;8.912;2024-01-27T00:04:05;10.32;;;3.67;;
32533;SDS011;18973;48.580;8.912;2024-01-27T00:06:30;8.55;;;3.45;;
32533;SDS011;18973;48.580;8.912;2024-01-27T00:08:56;3.90;;;3.33;;
32533;SDS011;18973;48.580;8.912;2024-01-27T00:11:22;6.43;;;5.25;;
32533;SDS011;18973;48.580;8.912;2024-01-27T00:13:49;7.32;;;3.20;;
32533;SDS011;18973;48.580;8.912;2024-01-27T00:16:15;5.53;;;3.42;;
32533;SDS011;18973;48.580;8.912;2024-01-27T00:18:40;9.50;;;3.35;;
32533;SDS011;18973;48.580;8.912;2024-01-27T00:21:06;3.22;;;2.83;;
32533;SDS011;18973;48.580;8.912;2024-01-27T00:23:32;6.15;;;3.15;;
32533;SDS011;18973;48.580;8.912;2024-01-27T00:25:59;3.92;;;2.90;;
32533;SDS011;18973;48.580;8.912;2024-01-27T00:28:25;5.53;;;3.13;;
32533;SDS011;18973;48.580;8.912;2024-01-27T00:30:51;6.15;;;4.20;;
32533;SDS011;18973;48.580;8.912;2024-01-27T00:33:17;5.50;;;3.95;;
32533;SDS011;18973;48.580;8.912;2024-01-27T00:35:42;8.82;;;3.38;;
32533;SDS011;18973;48.580;8.912;2024-01-27T00:38:08;6.00;;;3.25;;
32533;SDS011;18973;48.580;8.912;2024-01-27T00:40:34;10.23;;;3.20;;
32533;SDS011;18973;48.580;8.912;2024-01-27T00:42:59;5.60;;;3.22;;
32533;SDS011;18973;48.580;8.912;2024-01-27T00:45:28;3.53;;;3.17;;
32533;SDS011;18973;48.580;8.912;2024-01-27T00:47:55;5.18;;;2.85;;
32533;SDS011;18973;48.580;8.912;2024-01-27T00:50:21;3.90;;;3.25;;
32533;SDS011;18973;48.580;8.912;2024-01-27T00:52:47;4.13;;;2.85;;
32533;SDS011;18973;48.580;8.912;2024-01-27T00:55:13;3.97;;;2.85;;
32533;SDS011;18973;48.580;8.912;2024-01-27T00:57:39;3.78;;;3.17;;
32533;SDS011;18973;48.580;8.912;2024-01-27T01:00:08;7.93;;;3.03;;
32533;SDS011;18973;48.580;8.912;2024-01-27T01:02:34;7.97;;;2.95;;
32533;SDS011;18973;48.580;8.912;2024-01-27T01:05:01;4.75;;;3.20;;
32533;SDS011;18973;48.580;8.912;2024-01-27T01:07:29;8.20;;;3.10;;
32533;SDS011;18973;48.580;8.912;2024-01-27T01:09:55;7.93;;;3.00;;
32533;SDS011;18973;48.580;8.912;2024-01-27T01:12:20;14.40;;;4.05;;
32533;SDS011;18973;48.580;8.912;2024-01-27T01:14:46;6.65;;;3.08;;
32533;SDS011;18973;48.580;8.912;2024-01-27T01:17:12;7.38;;;3.05;;
32533;SDS011;18973;48.580;8.912;2024-01-27T01:19:38;4.05;;;3.10;;
32533;SDS011;18973;48.580;8.912;2024-01-27T01:22:05;6.13;;;3.15;;
32533;SDS011;18973;48.580;8.912;2024-01-27T01:24:30;8.35;;;2.47;;
32533;SDS011;18973;48.580;8.912;2024-01-27T01:26:56;9.52;;;3.00;;
32533;SDS011;18973;48.580;8.912;2024-01-27T01:29:22;4.43;;;2.58;;
32533;SDS011;18973;48.580;8.912;2024-01-27T01:31:48;5.45;;;3.22;;
32533;SDS011;18973;48.580;8.912;2024-01-27T01:34:14;6.03;;;3.67;;
32533;SDS011;18973;48.580;8.912;2024-01-27T01:36:40;10.77;;;4.65;;
32533;SDS011;18973;48.580;8.912;2024-01-27T01:39:06;7.05;;;4.13;;
32533;SDS011;18973;48.580;8.912;2024-01-27T01:41:32;7.38;;;3.90;;
32533;SDS011;18973;48.580;8.912;2024-01-27T01:43:58;5.43;;;4.20;;
32533;SDS011;18973;48.580;8.912;2024-01-27T01:46:24;6.47;;;4.03;;
32533;SDS011;18973;48.580;8.912;2024-01-27T01:48:50;7.82;;;4.25;;
32533;SDS011;18973;48.580;8.912;2024-01-27T01:51:16;7.93;;;4.22;;
32533;SDS011;18973;48.580;8.912;2024-01-27T01:53:42;10.68;;;5.32;;
32533;SDS011;18973;48.580;8.912;2024-01-27T01:56:09;7.78;;;4.15;;
32533;SDS011;18973;48.580;8.912;2024-01-27T01:58:35;7.05;;;3.70;;
32533;SDS011;18973;48.580;8.912;2024-01-27T02:01:00;4.55;;;3.85;;
32533;SDS011;18973;48.580;8.912;2024-01-27T02:03:26;6.78;;;3.97;;
32533;SDS011;18973;48.580;8.912;2024-01-27T02:05:52;5.00;;;4.30;;
32533;SDS011;18973;48.580;8.912;2024-01-27T02:08:18;8.52;;;3.75;;
32533;SDS011;18973;48.580;8.912;2024-01-27T02:10:43;5.13;;;3.85;;
32533;SDS011;18973;48.580;8.912;2024-01-27T02:13:17;9.13;;;3.50;;
32533;SDS011;18973;48.580;8.912;2024-01-27T02:15:43;7.32;;;3.85;;
32533;SDS011;18973;48.580;8.912;2024-01-27T02:18:09;9.43;;;4.00;;
32533;SDS011;18973;48.580;8.912;2024-01-27T02:20:35;7.70;;;3.92;;
32533;SDS011;18973;48.580;8.912;2024-01-27T02:23:02;4.85;;;4.32;;
32533;SDS011;18973;48.580;8.912;2024-01-27T02:25:29;5.82;;;3.83;;
32533;SDS011;18973;48.580;8.912;2024-01-27T02:27:59;7.35;;;4.30;;
32533;SDS011;18973;48.580;8.912;2024-01-27T02:30:25;8.25;;;3.80;;
32533;SDS011;18973;48.580;8.912;2024-01-27T02:32:51;5.75;;;3.65;;
32533;SDS011;18973;48.580;8.912;2024-01-27T02:35:17;5.05;;;3.92;;
32533;SDS011;18973;48.580;8.912;2024-01-27T02:37:42;18.00;;;6.30;;
32533;SDS011;18973;48.580;8.912;2024-01-27T02:40:08;10.75;;;5.50;;
32533;SDS011;18973;48.580;8.912;2024-01-27T02:42:35;10.70;;;5.07;;
32533;SDS011;18973;48.580;8.912;2024-01-27T02:45:01;10.25;;;5.07;;
32533;SDS011;18973;48.580;8.912;2024-01-27T02:47:28;13.32;;;5.57;;
32533;SDS011;18973;48.580;8.912;2024-01-27T02:49:53;10.65;;;5.13;;
32533;SDS011;18973;48.580;8.912;2024-01-27T02:52:19;10.77;;;5.43;;
32533;SDS011;18973;48.580;8.912;2024-01-27T02:54:45;7.60;;;5.03;;
32533;SDS011;18973;48.580;8.912;2024-01-27T02:57:10;7.03;;;4.88;;
32533;SDS011;18973;48.580;8.912;2024-01-27T02:59:36;5.20;;;4.13;;
32533;SDS011;18973;48.580;8.912;2024-01-27T03:02:04;7.20;;;4.50;;
32533;SDS011;18973;48.580;8.912;2024-01-27T03:04:30;11.52;;;4.93;;
32533;SDS011;18973;48.580;8.912;2024-01-27T03:06:56;6.40;;;4.38;;
32533;SDS011;18973;48.580;8.912;2024-01-27T03:09:21;9.85;;;3.92;;
32533;SDS011;18973;48.580;8.912;2024-01-27T03:11:47;5.15;;;4.30;;
32533;SDS011;18973;48.580;8.912;2024-01-27T03:14:13;7.03;;;4.05;;
32533;SDS011;18973;48.580;8.912;2024-01-27T03:16:40;6.90;;;4.75;;
32533;SDS011;18973;48.580;8.912;2024-01-27T03:19:07;4.95;;;4.50;;
32533;SDS011;18973;48.580;8.912;2024-01-27T03:21:32;9.48;;;4.88;;
32533;SDS011;18973;48.580;8.912;2024-01-27T03:23:58;7.38;;;4.90;;
32533;SDS011;18973;48.580;8.912;2024-01-27T03:26:23;8.15;;;5.30;;
32533;SDS011;18973;48.580;8.912;2024-01-27T03:28:50;5.90;;;4.50;;
32533;SDS011;18973;48.580;8.912;2024-01-27T03:31:15;8.00;;;4.93;;
32533;SDS011;18973;48.580;8.912;2024-01-27T03:33:41;8.30;;;5.38;;
32533;SDS011;18973;48.580;8.912;2024-01-27T03:36:10;13.38;;;4.95;;
32533;SDS011;18973;48.580;8.912;2024-01-27T03:38:37;6.28;;;5.32;;
32533;SDS011;18973;48.580;8.912;2024-01-27T03:41:03;5.28;;;4.78;;
32533;SDS011;18973;48.580;8.912;2024-01-27T03:43:29;10.93;;;4.60;;
32533;SDS011;18973;48.580;8.912;2024-01-27T03:45:56;5.72;;;3.95;;
32533;SDS011;18973;48.580;8.912;2024-01-27T03:48:22;5.60;;;4.90;;
32533;SDS011;18973;48.580;8.912;2024-01-27T03:50:47;5.50;;;4.90;;
32533;SDS011;18973;48.580;8.912;2024-01-27T03:53:13;7.70;;;4.72;;
32533;SDS011;18973;48.580;8.912;2024-01-27T03:55:39;8.98;;;5.05;;
32533;SDS011;18973;48.580;8.912;2024-01-27T03:58:05;12.63;;;5.68;;
32533;SDS011;18973;48.580;8.912;2024-01-27T04:00:31;6.57;;;5.50;;
32533;SDS011;18973;48.580;8.912;2024-01-27T04:03:01;11.93;;;6.00;;
32533;SDS011;18973;48.580;8.912;2024-01-27T04:05:28;11.82;;;6.05;;
32533;SDS011;18973;48.580;8.912;2024-01-27T04:07:55;10.10;;;5.32;;
32533;SDS011;18973;48.580;8.912;2024-01-27T04:10:21;8.52;;;5.93;;
32533;SDS011;18973;48.580;8.912;2024-01-27T04:12:47;8.35;;;5.93;;
32533;SDS011;18973;48.580;8.912;2024-01-27T04:15:13;11.32;;;5.85;;
32533;SDS011;18973;48.580;8.912;2024-01-27T04:17:39;8.93;;;6.40;;
32533;SDS011;18973;48.580;8.912;2024-01-27T04:20:05;10.10;;;6.10;;
32533;SDS011;18973;48.580;8.912;2024-01-27T04:22:32;7.70;;;6.20;;
32533;SDS011;18973;48.580;8.912;2024-01-27T04:24:59;9.02;;;6.70;;
32533;SDS011;18973;48.580;8.912;2024-01-27T04:27:26;9.77;;;6.65;;
32533;SDS011;18973;48.580;8.912;2024-01-27T04:29:53;6.90;;;6.20;;
32533;SDS011;18973;48.580;8.912;2024-01-27T04:32:19;7.80;;;6.25;;
32533;SDS011;18973;48.580;8.912;2024-01-27T04:34:46;8.27;;;5.65;;
32533;SDS011;18973;48.580;8.912;2024-01-27T04:37:12;7.97;;;5.05;;
32533;SDS011;18973;48.580;8.912;2024-01-27T04:39:38;6.00;;;4.45;;
32533;SDS011;18973;48.580;8.912;2024-01-27T04:42:03;7.22;;;5.03;;
32533;SDS011;18973;48.580;8.912;2024-01-27T04:44:31;6.45;;;4.88;;
32533;SDS011;18973;48.580;8.912;2024-01-27T04:46:57;10.70;;;4.72;;
32533;SDS011;18973;48.580;8.912;2024-01-27T04:49:23;5.05;;;4.43;;
32533;SDS011;18973;48.580;8.912;2024-01-27T04:51:48;5.85;;;5.30;;
32533;SDS011;18973;48.580;8.912;2024-01-27T04:54:14;8.32;;;5.45;;
32533;SDS011;18973;48.580;8.912;2024-01-27T04:56:40;7.60;;;5.03;;
32533;SDS011;18973;48.580;8.912;2024-01-27T04:59:06;12.25;;;5.85;;
32533;SDS011;18973;48.580;8.912;2024-01-27T05:01:32;10.07;;;5.32;;
32533;SDS011;18973;48.580;8.912;2024-01-27T05:03:58;9.05;;;5.72;;
32533;SDS011;18973;48.580;8.912;2024-01-27T05:06:24;7.63;;;5.88;;
32533;SDS011;18973;48.580;8.912;2024-01-27T05:08:50;7.68;;;5.95;;
32533;SDS011;18973;48.580;8.912;2024-01-27T05:11:16;9.25;;;6.20;;
32533;SDS011;18973;48.580;8.912;2024-01-27T05:16:15;10.88;;;6.20;;
32533;SDS011;18973;48.580;8.912;2024-01-27T05:18:41;9.45;;;6.68;;
32533;SDS011;18973;48.580;8.912;2024-01-27T05:21:07;10.55;;;6.45;;
32533;SDS011;18973;48.580;8.912;2024-01-27T05:23:32;11.85;;;6.03;;
32533;SDS011;18973;48.580;8.912;2024-01-27T05:25:58;9.57;;;6.65;;
32533;SDS011;18973;48.580;8.912;2024-01-27T05:28:24;11.98;;;5.68;;
32533;SDS011;18973;48.580;8.912;2024-01-27T05:30:49;10.65;;;6.03;;
32533;SDS011;18973;48.580;8.912;2024-01-27T05:33:15;6.05;;;5.32;;
32533;SDS011;18973;48.580;8.912;2024-01-27T05:35:41;8.05;;;5.70;;
32533;SDS011;18973;48.580;8.912;2024-01-27T05:38:07;13.45;;;5.43;;
32533;SDS011;18973;48.580;8.912;2024-01-27T05:40:33;11.00;;;5.68;;
32533;SDS011;18973;48.580;8.912;2024-01-27T05:42:59;17.33;;;6.15;;
32533;SDS011;18973;48.580;8.912;2024-01-27T05:45:24;10.25;;;5.38;;
32533;SDS011;18973;48.580;8.912;2024-01-27T05:47:51;10.02;;;5.70;;
32533;SDS011;18973;48.580;8.912;2024-01-27T05:50:17;9.30;;;6.18;;
32533;SDS011;18973;48.580;8.912;2024-01-27T05:52:43;9.13;;;5.97;;
32533;SDS011;18973;48.580;8.912;2024-01-27T05:55:08;11.82;;;6.63;;
32533;SDS011;18973;48.580;8.912;2024-01-27T05:57:36;8.70;;;6.18;;
32533;SDS011;18973;48.580;8.912;2024-01-27T06:00:02;9.23;;;6.55;;
32533;SDS011;18973;48.580;8.912;2024-01-27T06:02:28;6.13;;;5.53;;
32533;SDS011;18973;48.580;8.912;2024-01-27T06:04:54;13.88;;;6.32;;
32533;SDS011;18973;48.580;8.912;2024-01-27T06:07:19;8.05;;;6.72;;
32533;SDS011;18973;48.580;8.912;2024-01-27T06:09:45;9.02;;;6.00;;
32533;SDS011;18973;48.580;8.912;2024-01-27T06:12:11;7.07;;;6.00;;
32533;SDS011;18973;48.580;8.912;2024-01-27T06:14:36;7.93;;;5.93;;
32533;SDS011;18973;48.580;8.912;2024-01-27T06:17:04;7.82;;;6.10;;
32533;SDS011;18973;48.580;8.912;2024-01-27T06:19:30;8.25;;;6.50;;
32533;SDS011;18973;48.580;8.912;2024-01-27T06:21:56;17.27;;;8.02;;
32533;SDS011;18973;48.580;8.912;2024-01-27T06:24:22;23.45;;;11.13;;
32533;SDS011;18973;48.580;8.912;2024-01-27T06:26:47;25.27;;;11.25;;
32533;SDS011;18973;48.580;8.912;2024-01-27T06:29:13;28.63;;;13.48;;
32533;SDS011;18973;48.580;8.912;2024-01-27T06:31:39;20.48;;;11.80;;
32533;SDS011;18973;48.580;8.912;2024-01-27T06:34:05;19.88;;;10.45;;
32533;SDS011;18973;48.580;8.912;2024-01-27T06:36:31;17.05;;;10.00;;
32533;SDS011;18973;48.580;8.912;2024-01-27T06:38:57;16.85;;;9.50;;
32533;SDS011;18973;48.580;8.912;2024-01-27T06:41:23;11.48;;;8.32;;
32533;SDS011;18973;48.580;8.912;2024-01-27T06:43:48;12.60;;;7.72;;
32533;SDS011;18973;48.580;8.912;2024-01-27T06:46:14;11.68;;;9.10;;
32533;SDS011;18973;48.580;8.912;2024-01-27T06:48:40;13.68;;;8.70;;
32533;SDS011;18973;48.580;8.912;2024-01-27T06:51:05;20.48;;;11.70;;
32533;SDS011;18973;48.580;8.912;2024-01-27T06:53:31;20.05;;;11.32;;
32533;SDS011;18973;48.580;8.912;2024-01-27T06:55:57;18.42;;;10.82;;
32533;SDS011;18973;48.580;8.912;2024-01-27T06:58:22;19.15;;;10.38;;
32533;SDS011;18973;48.580;8.912;2024-01-27T07:00:48;16.73;;;9.80;;
32533;SDS011;18973;48.580;8.912;2024-01-27T07:03:14;22.08;;;10.45;;
32533;SDS011;18973;48.580;8.912;2024-01-27T07:05:39;15.10;;;10.85;;
32533;SDS011;18973;48.580;8.912;2024-01-27T07:08:06;15.55;;;11.30;;
32533;SDS011;18973;48.580;8.912;2024-01-27T07:10:32;21.67;;;11.38;;
32533;SDS011;18973;48.580;8.912;2024-01-27T07:12:59;19.08;;;13.50;;
32533;SDS011;18973;48.580;8.912;2024-01-27T07:15:25;22.85;;;12.98;;
32533;SDS011;18973;48.580;8.912;2024-01-27T07:17:52;15.07;;;10.20;;
32533;SDS011;18973;48.580;8.912;2024-01-27T07:20:18;19.20;;;9.45;;
32533;SDS011;18973;48.580;8.912;2024-01-27T07:22:44;12.27;;;8.40;;
32533;SDS011;18973;48.580;8.912;2024-01-27T07:25:10;12.23;;;8.70;;
32533;SDS011;18973;48.580;8.912;2024-01-27T07:27:35;21.25;;;10.02;;
32533;SDS011;18973;48.580;8.912;2024-01-27T07:30:02;41.35;;;14.80;;
32533;SDS011;18973;48.580;8.912;2024-01-27T07:32:28;16.55;;;9.48;;
32533;SDS011;18973;48.580;8.912;2024-01-27T07:34:53;13.45;;;8.38;;
32533;SDS011;18973;48.580;8.912;2024-01-27T07:37:19;12.88;;;9.88;;
32533;SDS011;18973;48.580;8.912;2024-01-27T07:39:46;34.85;;;12.20;;
32533;SDS011;18973;48.580;8.912;2024-01-27T07:42:14;39.65;;;12.98;;
32533;SDS011;18973;48.580;8.912;2024-01-27T07:44:40;26.45;;;13.65;;
32533;SDS011;18973;48.580;8.912;2024-01-27T07:47:07;33.25;;;16.80;;
32533;SDS011;18973;48.580;8.912;2024-01-27T07:49:33;35.75;;;16.48;;
32533;SDS011;18973;48.580;8.912;2024-01-27T07:51:59;40.38;;;20.75;;
32533;SDS011;18973;48.580;8.912;2024-01-27T07:54:25;34.47;;;18.33;;
32533;SDS011;18973;48.580;8.912;2024-01-27T07:56:51;34.10;;;14.30;;
32533;SDS011;18973;48.580;8.912;2024-01-27T07:59:17;36.15;;;13.65;;
32533;SDS011;18973;48.580;8.912;2024-01-27T08:01:43;17.13;;;11.77;;
32533;SDS011;18973;48.580;8.912;2024-01-27T08:04:11;21.42;;;12.18;;
32533;SDS011;18973;48.580;8.912;2024-01-27T08:06:46;33.83;;;11.07;;
32533;SDS011;18973;48.580;8.912;2024-01-27T08:09:13;30.15;;;11.20;;
32533;SDS011;18973;48.580;8.912;2024-01-27T08:11:39;33.33;;;11.23;;
32533;SDS011;18973;48.580;8.912;2024-01-27T08:14:04;43.35;;;11.32;;
32533;SDS011;18973;48.580;8.912;2024-01-27T08:16:30;43.83;;;10.77;;
32533;SDS011;18973;48.580;8.912;2024-01-27T08:18:56;29.60;;;10.23;;
32533;SDS011;18973;48.580;8.912;2024-01-27T08:21:21;22.20;;;10.50;;
32533;SDS011;18973;48.580;8.912;2024-01-27T08:23:48;31.27;;;10.63;;
32533;SDS011;18973;48.580;8.912;2024-01-27T08:26:14;29.73;;;11.95;;
32533;SDS011;18973;48.580;8.912;2024-01-27T08:28:40;31.65;;;12.27;;
32533;SDS011;18973;48.580;8.912;2024-01-27T08:31:05;98.93;;;40.80;;
32533;SDS011;18973;48.580;8.912;2024-01-27T08:33:31;61.65;;;27.45;;
32533;SDS011;18973;48.580;8.912;2024-01-27T08:35:57;33.40;;;15.70;;
32533;SDS011;18973;48.580;8.912;2024-01-27T08:38:23;18.60;;;12.07;;
32533;SDS011;18973;48.580;8.912;2024-01-27T08:40:48;25.23;;;11.07;;
32533;SDS011;18973;48.580;8.912;2024-01-27T08:43:14;17.40;;;10.00;;
32533;SDS011;18973;48.580;8.912;2024-01-27T08:45:40;19.48;;;10.13;;
32533;SDS011;18973;48.580;8.912;2024-01-27T08:48:06;14.57;;;10.10;;
32533;SDS011;18973;48.580;8.912;2024-01-27T08:50:32;20.70;;;9.63;;
32533;SDS011;18973;48.580;8.912;2024-01-27T08:52:58;18.67;;;10.18;;
32533;SDS011;18973;48.580;8.912;2024-01-27T08:55:23;12.27;;;8.27;;
32533;SDS011;18973;48.580;8.912;2024-01-27T08:57:50;12.32;;;8.48;;
32533;SDS011;18973;48.580;8.912;2024-01-27T09:00:16;14.43;;;8.02;;
32533;SDS011;18973;48.580;8.912;2024-01-27T09:02:42;14.70;;;8.05;;
32533;SDS011;18973;48.580;8.912;2024-01-27T09:05:08;11.63;;;7.72;;
32533;SDS011;18973;48.580;8.912;2024-01-27T09:07:34;12.27;;;8.43;;
32533;SDS011;18973;48.580;8.912;2024-01-27T09:10:00;9.82;;;7.50;;
32533;SDS011;18973;48.580;8.912;2024-01-27T09:12:26;18.67;;;8.70;;
32533;SDS011;18973;48.580;8.912;2024-01-27T09:14:52;11.57;;;7.45;;
32533;SDS011;18973;48.580;8.912;2024-01-27T09:17:19;14.82;;;8.50;;
32533;SDS011;18973;48.580;8.912;2024-01-27T09:19:45;8.43;;;7.35;;
32533;SDS011;18973;48.580;8.912;2024-01-27T09:22:11;12.60;;;8.05;;
32533;SDS011;18973;48.580;8.912;2024-01-27T09:24:36;11.23;;;8.27;;
32533;SDS011;18973;48.580;8.912;2024-01-27T09:27:02;11.05;;;7.57;;
32533;SDS011;18973;48.580;8.912;2024-01-27T09:29:29;20.65;;;7.88;;
32533;SDS011;18973;48.580;8.912;2024-01-27T09:31:54;18.73;;;8.30;;
32533;SDS011;18973;48.580;8.912;2024-01-27T09:34:20;16.17;;;7.78;;
32533;SDS011;18973;48.580;8.912;2024-01-27T09:36:46;21.65;;;8.80;;
32533;SDS011;18973;48.580;8.912;2024-01-27T09:39:11;20.80;;;7.30;;
32533;SDS011;18973;48.580;8.912;2024-01-27T09:41:37;19.50;;;8.85;;
32533;SDS011;18973;48.580;8.912;2024-01-27T09:44:04;45.45;;;9.02;;
32533;SDS011;18973;48.580;8.912;2024-01-27T09:46:31;62.35;;;11.30;;
32533;SDS011;18973;48.580;8.912;2024-01-27T09:48:57;29.23;;;7.80;;
32533;SDS011;18973;48.580;8.912;2024-01-27T09:51:24;12.75;;;7.53;;
32533;SDS011;18973;48.580;8.912;2024-01-27T09:53:50;49.28;;;9.13;;
32533;SDS011;18973;48.580;8.912;2024-01-27T09:56:17;35.78;;;8.85;;
32533;SDS011;18973;48.580;8.912;2024-01-27T09:58:44;27.30;;;8.30;;
32533;SDS011;18973;48.580;8.912;2024-01-27T10:01:10;22.60;;;7.80;;
32533;SDS011;18973;48.580;8.912;2024-01-27T10:03:38;29.02;;;8.63;;
32533;SDS011;18973;48.580;8.912;2024-01-27T10:06:07;18.13;;;8.98;;
32533;SDS011;18973;48.580;8.912;2024-01-27T10:08:34;20.58;;;10.20;;
32533;SDS011;18973;48.580;8.912;2024-01-27T10:11:00;24.30;;;10.52;;
32533;SDS011;18973;48.580;8.912;2024-01-27T10:13:32;18.15;;;8.38;;
32533;SDS011;18973;48.580;8.912;2024-01-27T10:16:02;13.40;;;7.78;;
32533;SDS011;18973;48.580;8.912;2024-01-27T10:18:29;10.38;;;7.63;;
32533;SDS011;18973;48.580;8.912;2024-01-27T10:20:55;9.98;;;7.30;;
32533;SDS011;18973;48.580;8.912;2024-01-27T10:23:21;13.73;;;6.72;;
32533;SDS011;18973;48.580;8.912;2024-01-27T10:25:46;8.55;;;6.50;;
32533;SDS011;18973;48.580;8.912;2024-01-27T10:28:12;8.55;;;5.80;;
32533;SDS011;18973;48.580;8.912;2024-01-27T10:30:38;10.15;;;6.07;;
32533;SDS011;18973;48.580;8.912;2024-01-27T10:33:04;8.55;;;5.85;;
32533;SDS011;18973;48.580;8.912;2024-01-27T10:35:29;9.48;;;6.43;;
32533;SDS011;18973;48.580;8.912;2024-01-27T10:37:55;11.35;;;6.93;;
32533;SDS011;18973;48.580;8.912;2024-01-27T10:40:22;11.93;;;7.05;;
32533;SDS011;18973;48.580;8.912;2024-01-27T10:43:08;8.23;;;5.78;;
32533;SDS011;18973;48.580;8.912;2024-01-27T10:45:40;11.05;;;6.55;;
32533;SDS011;18973;48.580;8.912;2024-01-27T10:48:07;9.10;;;6.78;;
32533;SDS011;18973;48.580;8.912;2024-01-27T10:50:36;6.15;;;4.80;;
32533;SDS011;18973;48.580;8.912;2024-01-27T10:53:04;19.45;;;6.03;;
32533;SDS011;18973;48.580;8.912;2024-01-27T10:55:33;10.38;;;6.05;;
32533;SDS011;18973;48.580;8.912;2024-01-27T10:58:02;6.32;;;5.68;;
32533;SDS011;18973;48.580;8.912;2024-01-27T11:00:28;10.57;;;6.38;;
32533;SDS011;18973;48.580;8.912;2024-01-27T11:02:58;9.25;;;6.47;;
32533;SDS011;18973;48.580;8.912;2024-01-27T11:05:24;9.63;;;6.85;;
32533;SDS011;18973;48.580;8.912;2024-01-27T11:07:53;11.73;;;6.57;;
32533;SDS011;18973;48.580;8.912;2024-01-27T11:10:20;29.40;;;7.28;;
32533;SDS011;18973;48.580;8.912;2024-01-27T11:12:45;13.07;;;6.55;;
32533;SDS011;18973;48.580;8.912;2024-01-27T11:15:14;16.20;;;7.32;;
32533;SDS011;18973;48.580;8.912;2024-01-27T11:17:40;11.77;;;7.35;;
32533;SDS011;18973;48.580;8.912;2024-01-27T11:20:10;20.38;;;8.65;;
32533;SDS011;18973;48.580;8.912;2024-01-27T11:22:36;14.10;;;9.05;;
32533;SDS011;18973;48.580;8.912;2024-01-27T11:27:40;18.55;;;8.55;;
32533;SDS011;18973;48.580;8.912;2024-01-27T11:30:24;15.50;;;8.07;;
32533;SDS011;18973;48.580;8.912;2024-01-27T11:32:52;12.15;;;8.50;;
32533;SDS011;18973;48.580;8.912;2024-01-27T11:35:19;21.58;;;9.55;;
32533;SDS011;18973;48.580;8.912;2024-01-27T11:37:45;12.27;;;8.20;;
32533;SDS011;18973;48.580;8.912;2024-01-27T11:40:11;13.07;;;8.57;;
32533;SDS011;18973;48.580;8.912;2024-01-27T11:42:37;14.32;;;8.45;;
32533;SDS011;18973;48.580;8.912;2024-01-27T11:45:02;12.50;;;8.68;;
32533;SDS011;18973;48.580;8.912;2024-01-27T11:47:29;14.77;;;8.65;;
32533;SDS011;18973;48.580;8.912;2024-01-27T11:49:55;11.88;;;8.45;;
32533;SDS011;18973;48.580;8.912;2024-01-27T11:52:23;16.25;;;9.00;;
32533;SDS011;18973;48.580;8.912;2024-01-27T11:54:56;14.20;;;8.73;;
32533;SDS011;18973;48.580;8.912;2024-01-27T11:57:22;21.25;;;9.18;;
32533;SDS011;18973;48.580;8.912;2024-01-27T11:59:48;21.42;;;10.65;;
32533;SDS011;18973;48.580;8.912;2024-01-27T12:02:15;23.45;;;10.50;;
32533;SDS011;18973;48.580;8.912;2024-01-27T12:04:41;14.38;;;9.18;;
32533;SDS011;18973;48.580;8.912;2024-01-27T12:07:07;20.60;;;11.10;;
32533;SDS011;18973;48.580;8.912;2024-01-27T12:09:32;18.10;;;9.88;;
32533;SDS011;18973;48.580;8.912;2024-01-27T12:12:00;18.48;;;10.35;;
32533;SDS011;18973;48.580;8.912;2024-01-27T12:14:25;14.38;;;8.50;;
32533;SDS011;18973;48.580;8.912;2024-01-27T12:17:01;14.35;;;9.30;;
32533;SDS011;18973;48.580;8.912;2024-01-27T12:19:27;11.73;;;8.25;;
32533;SDS011;18973;48.580;8.912;2024-01-27T12:21:53;15.13;;;9.05;;
32533;SDS011;18973;48.580;8.912;2024-01-27T12:24:19;13.63;;;8.43;;
32533;SDS011;18973;48.580;8.912;2024-01-27T12:26:44;14.32;;;8.38;;
32533;SDS011;18973;48.580;8.912;2024-01-27T12:29:10;18.50;;;10.27;;
32533;SDS011;18973;48.580;8.912;2024-01-27T12:31:36;11.60;;;7.82;;
32533;SDS011;18973;48.580;8.912;2024-01-27T12:34:02;12.95;;;7.93;;
32533;SDS011;18973;48.580;8.912;2024-01-27T12:36:28;12.20;;;8.10;;
32533;SDS011;18973;48.580;8.912;2024-01-27T12:38:55;13.60;;;8.45;;
32533;SDS011;18973;48.580;8.912;2024-01-27T12:41:25;11.98;;;7.75;;
32533;SDS011;18973;48.580;8.912;2024-01-27T12:43:52;9.93;;;7.53;;
32533;SDS011;18973;48.580;8.912;2024-01-27T12:46:18;12.45;;;8.20;;
32533;SDS011;18973;48.580;8.912;2024-01-27T12:48:47;10.40;;;7.80;;
32533;SDS011;18973;48.580;8.912;2024-01-27T12:51:13;12.00;;;7.60;;
32533;SDS011;18973;48.580;8.912;2024-01-27T12:53:39;20.77;;;9.98;;
32533;SDS011;18973;48.580;8.912;2024-01-27T12:56:08;11.25;;;7.15;;
32533;SDS011;18973;48.580;8.912;2024-01-27T12:58:35;16.17;;;8.07;;
32533;SDS011;18973;48.580;8.912;2024-01-27T13:01:00;10.70;;;5.93;;
32533;SDS011;18973;48.580;8.912;2024-01-27T13:03:26;15.00;;;7.93;;
32533;SDS011;18973;48.580;8.912;2024-01-27T13:05:53;12.93;;;8.85;;
32533;SDS011;18973;48.580;8.912;2024-01-27T13:08:19;9.63;;;6.30;;
32533;SDS011;18973;48.580;8.912;2024-01-27T13:10:45;10.35;;;6.63;;
32533;SDS011;18973;48.580;8.912;2024-01-27T13:13:10;12.25;;;7.40;;
32533;SDS011;18973;48.580;8.912;2024-01-27T13:15:36;15.93;;;7.75;;
32533;SDS011;18973;48.580;8.912;2024-01-27T13:18:01;9.10;;;6.88;;
32533;SDS011;18973;48.580;8.912;2024-01-27T13:20:27;13.55;;;7.03;;
32533;SDS011;18973;48.580;8.912;2024-01-27T13:22:53;13.52;;;7.35;;
32533;SDS011;18973;48.580;8.912;2024-01-27T13:25:19;13.55;;;7.45;;
32533;SDS011;18973;48.580;8.912;2024-01-27T13:27:45;13.90;;;8.13;;
32533;SDS011;18973;48.580;8.912;2024-01-27T13:30:11;11.50;;;7.68;;
32533;SDS011;18973;48.580;8.912;2024-01-27T13:32:38;10.95;;;7.70;;
32533;SDS011;18973;48.580;8.912;2024-01-27T13:35:04;13.60;;;6.68;;
32533;SDS011;18973;48.580;8.912;2024-01-27T13:37:30;11.68;;;7.45;;
32533;SDS011;18973;48.580;8.912;2024-01-27T13:39:59;10.07;;;6.97;;
32533;SDS011;18973;48.580;8.912;2024-01-27T13:42:25;12.48;;;8.02;;
32533;SDS011;18973;48.580;8.912;2024-01-27T13:44:51;13.88;;;8.35;;
32533;SDS011;18973;48.580;8.912;2024-01-27T13:47:17;16.70;;;7.78;;
32533;SDS011;18973;48.580;8.912;2024-01-27T13:49:43;14.55;;;9.05;;
32533;SDS011;18973;48.580;8.912;2024-01-27T13:52:09;15.48;;;6.88;;
32533;SDS011;18973;48.580;8.912;2024-01-27T13:54:35;10.70;;;6.50;;
32533;SDS011;18973;48.580;8.912;2024-01-27T13:57:02;12.25;;;6.55;;
32533;SDS011;18973;48.580;8.912;2024-01-27T13:59:28;9.63;;;6.40;;
32533;SDS011;18973;48.580;8.912;2024-01-27T14:01:53;9.95;;;5.90;;
32533;SDS011;18973;48.580;8.912;2024-01-27T14:04:21;16.23;;;5.97;;
32533;SDS011;18973;48.580;8.912;2024-01-27T14:06:49;14.18;;;5.75;;
32533;SDS011;18973;48.580;8.912;2024-01-27T14:09:18;13.25;;;7.03;;
32533;SDS011;18973;48.580;8.912;2024-01-27T14:11:45;9.82;;;5.55;;
32533;SDS011;18973;48.580;8.912;2024-01-27T14:14:10;15.40;;;5.45;;
32533;SDS011;18973;48.580;8.912;2024-01-27T14:16:36;10.88;;;5.90;;
32533;SDS011;18973;48.580;8.912;2024-01-27T14:19:02;9.35;;;6.15;;
32533;SDS011;18973;48.580;8.912;2024-01-27T14:21:27;11.68;;;5.63;;
32533;SDS011;18973;48.580;8.912;2024-01-27T14:23:53;13.18;;;5.63;;
32533;SDS011;18973;48.580;8.912;2024-01-27T14:26:26;7.85;;;5.57;;
32533;SDS011;18973;48.580;8.912;2024-01-27T14:28:55;8.80;;;5.43;;
32533;SDS011;18973;48.580;8.912;2024-01-27T14:31:21;8.60;;;5.45;;
32533;SDS011;18973;48.580;8.912;2024-01-27T14:33:47;10.38;;;5.07;;
32533;SDS011;18973;48.580;8.912;2024-01-27T14:36:13;9.77;;;6.20;;
32533;SDS011;18973;48.580;8.912;2024-01-27T14:38:39;13.15;;;5.93;;